createdAt,value
2023-02-14T00:01:14.633Z,12.57
2023-02-14T00:03:44.373Z,11.67
2023-02-14T00:06:14.973Z,11.93
2023-02-14T00:08:47.456Z,9.73
2023-02-14T00:11:17.218Z,10.40
2023-02-14T00:14:06.870Z,10.40
2023-02-14T00:16:33.853Z,10.17
2023-02-14T00:19:06.431Z,8.83
2023-02-14T00:21:37.374Z,9.73
2023-02-14T00:24:10.936Z,10.07
2023-02-14T00:26:41.406Z,9.53
2023-02-14T00:29:11.599Z,9.73
2023-02-14T00:31:41.371Z,9.43
2023-02-14T00:34:11.451Z,8.97
2023-02-14T00:36:41.385Z,9.10
2023-02-14T00:39:14.568Z,10.07
2023-02-14T00:41:44.798Z,9.90
2023-02-14T00:44:15.321Z,10.77
2023-02-14T00:46:44.929Z,9.67
2023-02-14T00:49:14.699Z,11.40
2023-02-14T00:51:44.313Z,8.93
2023-02-14T00:54:16.523Z,10.67
2023-02-14T00:56:46.196Z,9.23
2023-02-14T00:59:15.697Z,11.47
2023-02-14T01:01:45.231Z,10.27
2023-02-14T01:04:14.840Z,11.37
2023-02-14T01:06:44.384Z,9.50
2023-02-14T01:09:18.844Z,8.33
2023-02-14T01:11:48.886Z,8.00
2023-02-14T01:14:18.437Z,8.07
2023-02-14T01:16:47.988Z,10.23
2023-02-14T01:19:19.871Z,12.60
2023-02-14T01:21:49.416Z,11.27
2023-02-14T01:24:21.635Z,10.87
2023-02-14T01:26:51.227Z,10.30
2023-02-14T01:29:20.789Z,10.27
2023-02-14T01:31:51.216Z,10.57
2023-02-14T01:34:20.787Z,11.73
2023-02-14T01:36:50.258Z,10.77
2023-02-14T01:39:24.034Z,11.77
2023-02-14T01:41:54.016Z,11.20
2023-02-14T01:44:38.520Z,12.40
2023-02-14T01:47:11.140Z,11.33
2023-02-14T01:49:42.334Z,11.97
2023-02-14T01:52:15.225Z,12.33
2023-02-14T01:54:49.301Z,12.60
2023-02-14T01:57:20.120Z,12.93
2023-02-14T01:59:51.809Z,11.93
2023-02-14T02:02:24.204Z,12.17
2023-02-14T02:04:55.059Z,12.93
2023-02-14T02:07:28.988Z,12.20
2023-02-14T02:10:06.122Z,13.53
2023-02-14T02:12:35.923Z,12.93
2023-02-14T02:15:05.981Z,11.40
2023-02-14T02:17:42.956Z,13.33
2023-02-14T02:20:23.978Z,12.50
2023-02-14T02:23:14.596Z,11.90
2023-02-14T02:26:03.941Z,11.57
2023-02-14T02:28:48.579Z,12.50
2023-02-14T02:31:29.807Z,12.40
2023-02-14T02:34:18.112Z,12.53
2023-02-14T02:36:59.489Z,10.93
2023-02-14T02:39:34.610Z,11.53
2023-02-14T02:42:08.104Z,12.53
2023-02-14T02:44:43.085Z,12.60
2023-02-14T02:47:17.926Z,13.07
2023-02-14T02:50:01.307Z,13.20
2023-02-14T02:52:52.648Z,12.23
2023-02-14T02:55:25.884Z,11.60
2023-02-14T02:57:54.019Z,12.83
2023-02-14T03:00:24.517Z,11.80
2023-02-14T03:03:07.042Z,12.00
2023-02-14T03:05:37.552Z,11.67
2023-02-14T03:08:09.704Z,11.73
2023-02-14T03:10:41.008Z,12.37
2023-02-14T03:13:22.243Z,11.50
2023-02-14T03:16:10.148Z,11.87
2023-02-14T03:18:59.406Z,12.00
2023-02-14T03:21:33.289Z,12.63
2023-02-14T03:24:08.384Z,13.00
2023-02-14T03:26:40.732Z,12.23
2023-02-14T03:29:15.372Z,12.23
2023-02-14T03:31:50.353Z,12.87
2023-02-14T03:34:24.033Z,11.10
2023-02-14T03:36:55.427Z,11.83
2023-02-14T03:39:30.532Z,11.53
2023-02-14T03:42:06.360Z,11.87
2023-02-14T03:44:37.140Z,10.73
2023-02-14T03:47:08.869Z,11.00
2023-02-14T03:49:39.842Z,9.53
2023-02-14T03:52:10.775Z,10.80
2023-02-14T03:54:43.572Z,11.40
2023-02-14T03:57:17.005Z,11.90
2023-02-14T03:59:46.608Z,11.17
2023-02-14T04:02:18.225Z,9.97
2023-02-14T04:04:48.503Z,10.40
2023-02-14T04:07:19.786Z,10.27
2023-02-14T04:09:52.080Z,10.07
2023-02-14T04:12:36.867Z,10.07
2023-02-14T04:15:07.633Z,10.20
2023-02-14T04:17:49.497Z,10.13
2023-02-14T04:20:19.054Z,10.10
2023-02-14T04:22:49.107Z,9.90
2023-02-14T04:25:22.181Z,9.67
2023-02-14T04:27:51.717Z,9.77
2023-02-14T04:30:22.946Z,9.63
2023-02-14T04:32:52.823Z,9.27
2023-02-14T04:35:22.303Z,9.83
2023-02-14T04:37:51.906Z,10.83
2023-02-14T04:40:24.037Z,9.97
2023-02-14T04:42:53.625Z,9.97
2023-02-14T04:45:23.288Z,10.73
2023-02-14T04:47:53.050Z,9.77
2023-02-14T04:50:27.014Z,10.03
2023-02-14T04:52:56.492Z,9.83
2023-02-14T04:55:28.623Z,10.20
2023-02-14T04:57:58.224Z,10.77
2023-02-14T05:00:27.942Z,8.87
2023-02-14T05:02:57.460Z,10.60
2023-02-14T05:05:26.959Z,9.97
2023-02-14T05:07:56.448Z,10.00
2023-02-14T05:10:29.287Z,9.87
2023-02-14T05:12:58.831Z,10.10
2023-02-14T05:15:28.279Z,9.73
2023-02-14T05:18:02.076Z,9.53
2023-02-14T05:20:31.719Z,9.63
2023-02-14T05:23:03.535Z,9.57
2023-02-14T05:25:35.699Z,8.97
2023-02-14T05:28:05.292Z,9.07
2023-02-14T05:30:34.952Z,10.20
2023-02-14T05:33:04.661Z,8.13
2023-02-14T05:35:34.527Z,7.97
2023-02-14T05:38:04.002Z,8.20
2023-02-14T05:40:36.153Z,8.57
2023-02-14T05:43:05.604Z,8.93
2023-02-14T05:45:35.066Z,8.37
2023-02-14T05:48:06.249Z,8.60
2023-02-14T05:50:35.789Z,7.97
2023-02-14T05:53:05.271Z,7.43
2023-02-14T05:55:37.502Z,7.67
2023-02-14T05:58:06.937Z,7.77
2023-02-14T06:00:39.314Z,7.43
2023-02-14T06:03:10.437Z,7.13
2023-02-14T06:05:40.026Z,7.27
2023-02-14T06:08:09.497Z,6.07
2023-02-14T06:10:41.687Z,7.00
2023-02-14T06:13:11.414Z,6.73
2023-02-14T06:15:41.289Z,7.20
2023-02-14T06:18:10.809Z,8.23
2023-02-14T06:20:40.282Z,7.77
2023-02-14T06:23:10.019Z,7.13
2023-02-14T06:25:42.146Z,7.13
2023-02-14T06:28:12.003Z,6.13
2023-02-14T06:30:41.598Z,6.73
2023-02-14T06:33:11.151Z,8.00
2023-02-14T06:35:40.725Z,6.73
2023-02-14T06:38:10.221Z,6.63
2023-02-14T06:40:42.325Z,7.13
2023-02-14T06:43:11.939Z,6.60
2023-02-14T06:45:43.759Z,6.70
2023-02-14T06:48:13.397Z,6.50
2023-02-14T06:50:42.870Z,6.00
2023-02-14T06:53:12.386Z,5.40
2023-02-14T06:55:44.530Z,6.57
2023-02-14T06:58:14.033Z,6.70
2023-02-14T07:00:43.521Z,7.03
2023-02-14T07:03:13.160Z,6.47
2023-02-14T07:05:45.219Z,6.23
2023-02-14T07:08:14.711Z,6.10
2023-02-14T07:10:46.846Z,6.83
2023-02-14T07:13:16.608Z,6.43
2023-02-14T07:15:46.151Z,6.57
2023-02-14T07:18:15.698Z,6.43
2023-02-14T07:20:45.717Z,6.30
2023-02-14T07:23:15.234Z,5.73
2023-02-14T07:25:47.324Z,6.60
2023-02-14T07:28:17.176Z,6.03
2023-02-14T07:30:46.859Z,6.17
2023-02-14T07:33:16.848Z,5.87
2023-02-14T07:35:46.350Z,5.60
2023-02-14T07:38:15.810Z,5.63
2023-02-14T07:40:47.929Z,5.67
2023-02-14T07:43:19.424Z,6.00
2023-02-14T07:45:49.712Z,5.97
2023-02-14T07:48:19.208Z,6.73
2023-02-14T07:50:48.728Z,7.93
2023-02-14T07:53:18.239Z,7.90
2023-02-14T07:55:54.122Z,9.93
2023-02-14T07:58:23.815Z,8.10
2023-02-14T08:00:57.214Z,8.03
2023-02-14T08:03:26.887Z,10.83
2023-02-14T08:05:59.751Z,9.03
2023-02-14T08:08:29.859Z,7.77
2023-02-14T08:11:02.537Z,9.03
2023-02-14T08:13:29.624Z,8.43
2023-02-14T08:16:09.697Z,12.20
2023-02-14T08:18:40.470Z,7.73
2023-02-14T08:21:11.358Z,6.70
2023-02-14T08:23:41.546Z,5.90
2023-02-14T08:26:13.616Z,6.70
2023-02-14T08:28:43.223Z,6.43
2023-02-14T08:31:13.925Z,6.13
2023-02-14T08:33:45.017Z,6.93
2023-02-14T08:36:14.558Z,6.80
2023-02-14T08:38:45.271Z,5.73
2023-02-14T08:41:17.474Z,6.27
2023-02-14T08:43:47.513Z,6.50
2023-02-14T08:46:17.347Z,6.30
2023-02-14T08:48:47.063Z,6.60
2023-02-14T08:51:17.352Z,6.23
2023-02-14T08:53:47.165Z,5.07
2023-02-14T08:56:21.030Z,5.67
2023-02-14T08:58:50.704Z,5.97
2023-02-14T09:01:20.703Z,6.23
2023-02-14T09:03:50.704Z,5.63
2023-02-14T09:06:20.892Z,5.40
2023-02-14T09:08:50.363Z,6.13
2023-02-14T09:11:23.560Z,5.93
2023-02-14T09:13:53.543Z,6.70
2023-02-14T09:16:23.802Z,9.37
2023-02-14T09:18:54.732Z,9.00
2023-02-14T09:21:25.862Z,7.10
2023-02-14T09:23:55.510Z,7.77
2023-02-14T09:26:28.908Z,6.17
2023-02-14T09:28:59.216Z,6.70
2023-02-14T09:31:28.875Z,6.67
2023-02-14T09:34:10.742Z,6.90
2023-02-14T09:36:40.294Z,6.50
2023-02-14T09:39:09.781Z,6.53
2023-02-14T09:41:56.662Z,6.17
2023-02-14T09:44:29.089Z,6.23
2023-02-14T09:46:59.874Z,5.40
2023-02-14T09:49:33.209Z,6.37
2023-02-14T09:52:04.831Z,6.33
2023-02-14T09:54:35.873Z,6.57
2023-02-14T09:57:11.725Z,6.07
2023-02-14T09:59:45.817Z,6.00
2023-02-14T10:02:25.203Z,5.60
2023-02-14T10:05:00.515Z,6.33
2023-02-14T10:07:33.556Z,7.40
2023-02-14T10:10:05.950Z,5.65
2023-02-14T10:12:39.543Z,6.77
2023-02-14T10:15:14.988Z,6.47
2023-02-14T10:17:47.542Z,5.97
2023-02-14T10:20:23.459Z,6.93
2023-02-14T10:22:58.143Z,6.53
2023-02-14T10:25:29.312Z,6.60
2023-02-14T10:28:04.124Z,6.83
2023-02-14T10:30:39.857Z,6.53
2023-02-14T10:33:14.786Z,7.50
2023-02-14T10:35:47.246Z,8.00
2023-02-14T10:38:23.124Z,7.20
2023-02-14T10:41:02.085Z,7.67
2023-02-14T10:43:37.408Z,7.23
2023-02-14T10:46:10.348Z,7.10
2023-02-14T10:48:44.560Z,7.27
2023-02-14T10:51:17.389Z,6.80
2023-02-14T10:53:54.023Z,6.47
2023-02-14T10:56:25.377Z,6.60
2023-02-14T10:58:59.471Z,6.20
2023-02-14T11:01:29.081Z,7.00
2023-02-14T11:04:03.768Z,7.73
2023-02-14T11:06:33.789Z,7.07
2023-02-14T11:09:03.520Z,7.63
2023-02-14T11:11:33.760Z,7.87
2023-02-14T11:17:25.301Z,7.90
2023-02-14T11:19:59.545Z,7.13
2023-02-14T11:22:31.976Z,7.37
2023-02-14T11:25:08.081Z,7.40
2023-02-14T11:27:38.349Z,7.20
2023-02-14T11:30:21.556Z,6.67
2023-02-14T11:32:56.373Z,6.87
2023-02-14T11:35:33.901Z,7.43
2023-02-14T11:38:04.280Z,7.67
2023-02-14T11:40:35.115Z,7.07
2023-02-14T11:43:20.256Z,7.03
2023-02-14T11:45:52.861Z,5.90
2023-02-14T11:48:39.506Z,6.65
2023-02-14T11:51:10.117Z,6.27
2023-02-14T11:53:47.623Z,6.87
2023-02-14T11:56:17.833Z,6.63
2023-02-14T11:58:50.926Z,6.13
2023-02-14T12:01:27.710Z,6.28
2023-02-14T12:03:58.581Z,6.60
2023-02-14T12:06:29.365Z,6.23
2023-02-14T12:09:13.475Z,6.60
2023-02-14T12:11:43.146Z,6.18
2023-02-14T12:14:24.006Z,7.05
2023-02-14T12:16:59.214Z,7.45
2023-02-14T12:19:35.332Z,7.23
2023-02-14T12:22:07.193Z,6.95
2023-02-14T12:24:38.153Z,6.90
2023-02-14T12:27:20.674Z,6.40
2023-02-14T12:29:51.560Z,6.78
2023-02-14T12:32:26.561Z,5.90
2023-02-14T12:34:58.593Z,5.35
2023-02-14T12:37:35.389Z,5.88
2023-02-14T12:40:19.911Z,5.70
2023-02-14T12:42:59.624Z,5.63
2023-02-14T12:45:37.353Z,5.28
2023-02-14T12:48:16.721Z,5.88
2023-02-14T12:50:51.717Z,6.38
2023-02-14T12:53:33.017Z,6.03
2023-02-14T12:56:08.334Z,5.85
2023-02-14T12:58:44.972Z,6.18
2023-02-14T13:01:38.474Z,6.13
2023-02-14T13:04:24.747Z,6.10
2023-02-14T13:07:00.018Z,6.73
2023-02-14T13:09:36.445Z,5.93
2023-02-14T13:12:13.207Z,6.40
2023-02-14T13:14:53.361Z,6.95
2023-02-14T13:17:27.606Z,7.20
2023-02-14T13:20:01.395Z,6.85
2023-02-14T13:22:34.067Z,6.65
2023-02-14T13:25:06.615Z,9.32
2023-02-14T13:27:40.185Z,6.47
2023-02-14T13:30:14.990Z,6.43
2023-02-14T13:32:46.441Z,6.87
2023-02-14T13:35:19.271Z,7.07
2023-02-14T13:37:54.378Z,5.65
2023-02-14T13:40:25.383Z,6.67
2023-02-14T13:42:56.273Z,6.63
2023-02-14T13:45:49.687Z,6.93
2023-02-14T13:48:20.394Z,7.25
2023-02-14T13:50:53.036Z,7.85
2023-02-14T13:53:35.961Z,7.43
2023-02-14T13:56:06.836Z,7.25
2023-02-14T13:58:36.661Z,7.63
2023-02-14T14:01:21.024Z,7.85
2023-02-14T14:03:58.467Z,8.27
2023-02-14T14:06:28.160Z,6.63
2023-02-14T14:09:00.371Z,8.02
2023-02-14T14:11:44.917Z,6.78
2023-02-14T14:14:36.313Z,8.83
2023-02-14T14:17:20.173Z,7.38
2023-02-14T14:19:50.458Z,8.13
2023-02-14T14:22:20.984Z,7.20
2023-02-14T14:24:57.319Z,7.60
2023-02-14T14:27:27.692Z,8.32
2023-02-14T14:29:58.599Z,7.18
2023-02-14T14:32:30.058Z,7.07
2023-02-14T14:35:00.593Z,8.13
2023-02-14T14:37:31.501Z,7.35
2023-02-14T14:40:05.222Z,7.03
2023-02-14T14:42:38.998Z,7.20
2023-02-14T14:45:10.919Z,6.07
2023-02-14T14:47:43.194Z,6.97
2023-02-14T14:50:17.645Z,6.43
2023-02-14T14:52:49.632Z,6.60
2023-02-14T14:55:23.227Z,7.30
2023-02-14T14:57:53.604Z,6.68
2023-02-14T15:00:27.252Z,7.53
2023-02-14T15:03:04.292Z,6.70
2023-02-14T15:05:35.264Z,6.57
2023-02-14T15:08:23.046Z,6.80
2023-02-14T15:10:57.324Z,6.70
2023-02-14T15:13:45.856Z,6.70
2023-02-14T15:16:19.039Z,6.53
2023-02-14T15:18:48.773Z,6.63
2023-02-14T15:21:18.589Z,6.00
2023-02-14T15:23:48.418Z,6.60
2023-02-14T15:26:25.644Z,6.15
2023-02-14T15:28:57.693Z,6.05
2023-02-14T15:31:29.073Z,6.03
2023-02-14T15:34:00.269Z,6.43
2023-02-14T15:36:30.058Z,6.30
2023-02-14T15:39:00.402Z,6.28
2023-02-14T15:41:32.562Z,5.85
2023-02-14T15:44:02.435Z,6.07
2023-02-14T15:46:37.170Z,5.60
2023-02-14T15:49:09.804Z,5.28
2023-02-14T15:51:40.799Z,5.43
2023-02-14T15:54:11.254Z,5.22
2023-02-14T15:56:45.737Z,5.45
2023-02-14T15:59:18.034Z,4.40
2023-02-14T16:01:52.691Z,5.88
2023-02-14T16:04:26.089Z,5.67
2023-02-14T16:07:07.246Z,6.18
2023-02-14T16:09:37.907Z,6.45
2023-02-14T16:12:24.997Z,5.95
2023-02-14T16:15:05.797Z,6.50
2023-02-14T16:17:36.320Z,5.77
2023-02-14T16:20:24.015Z,6.37
2023-02-14T16:22:54.495Z,5.37
2023-02-14T16:25:24.126Z,6.47
2023-02-14T16:27:54.064Z,5.83
2023-02-14T16:30:26.611Z,5.57
2023-02-14T16:32:57.305Z,5.90
2023-02-14T16:35:27.284Z,6.33
2023-02-14T16:37:57.081Z,6.32
2023-02-14T16:40:28.330Z,6.20
2023-02-14T16:42:59.258Z,6.13
2023-02-14T16:45:31.653Z,6.67
2023-02-14T16:48:01.284Z,6.67
2023-02-14T16:50:33.158Z,7.10
2023-02-14T16:53:04.161Z,7.63
2023-02-14T16:55:34.195Z,6.97
2023-02-14T16:58:04.945Z,6.67
2023-02-14T17:00:38.379Z,6.27
2023-02-14T17:03:11.697Z,6.37
2023-02-14T17:05:42.078Z,5.73
2023-02-14T17:08:13.525Z,6.13
2023-02-14T17:10:43.761Z,6.63
2023-02-14T17:13:13.704Z,5.73
2023-02-14T17:15:45.973Z,5.43
2023-02-14T17:18:18.302Z,6.00
2023-02-14T17:20:47.950Z,5.90
2023-02-14T17:23:18.554Z,5.90
2023-02-14T17:25:48.156Z,6.40
2023-02-14T17:28:17.645Z,6.30
2023-02-14T17:30:49.810Z,5.67
2023-02-14T17:33:20.046Z,6.13
2023-02-14T17:35:51.050Z,7.57
2023-02-14T17:38:22.214Z,8.93
2023-02-14T17:40:51.818Z,9.07
2023-02-14T17:43:21.280Z,8.03
2023-02-14T17:45:53.519Z,8.23
2023-02-14T17:48:23.226Z,7.67
2023-02-14T17:50:52.826Z,7.47
2023-02-14T17:53:22.345Z,8.63
2023-02-14T17:55:52.397Z,6.43
2023-02-14T17:58:21.974Z,7.43
2023-02-14T18:00:54.185Z,6.57
2023-02-14T18:03:23.826Z,5.40
2023-02-14T18:05:53.382Z,6.50
2023-02-14T18:08:23.084Z,7.33
2023-02-14T18:10:52.561Z,7.83
2023-02-14T18:13:22.171Z,8.57
2023-02-14T18:15:54.676Z,8.33
2023-02-14T18:18:24.406Z,9.13
2023-02-14T18:20:56.901Z,9.20
2023-02-14T18:23:26.587Z,10.57
2023-02-14T18:25:56.953Z,11.17
2023-02-14T18:28:27.588Z,8.63
2023-02-14T18:31:04.830Z,8.97
2023-02-14T18:33:34.523Z,8.43
2023-02-14T18:36:04.532Z,8.57
2023-02-14T18:38:34.212Z,7.47
2023-02-14T18:41:04.767Z,8.10
2023-02-14T18:43:34.341Z,8.53
2023-02-14T18:46:08.861Z,8.03
2023-02-14T18:48:39.160Z,6.83
2023-02-14T18:51:09.115Z,7.70
2023-02-14T18:53:39.338Z,6.50
2023-02-14T18:56:09.559Z,7.10
2023-02-14T18:58:39.033Z,7.60
2023-02-14T19:01:15.098Z,7.13
2023-02-14T19:03:45.092Z,8.37
2023-02-14T19:06:14.966Z,8.50
2023-02-14T19:08:44.802Z,8.60
2023-02-14T19:11:14.894Z,9.63
2023-02-14T19:13:47.157Z,9.83
2023-02-14T19:16:20.476Z,8.47
2023-02-14T19:18:50.136Z,8.57
2023-02-14T19:21:20.672Z,7.40
2023-02-14T19:23:50.567Z,8.67
2023-02-14T19:26:21.765Z,8.13
2023-02-14T19:28:52.049Z,8.80
2023-02-14T19:31:24.491Z,8.47
2023-02-14T19:33:54.358Z,8.53
2023-02-14T19:36:24.838Z,8.33
2023-02-14T19:38:54.786Z,8.40
2023-02-14T19:41:25.024Z,8.07
2023-02-14T19:43:54.929Z,8.20
2023-02-14T19:46:27.818Z,7.40
2023-02-14T19:48:58.375Z,6.83
2023-02-14T19:51:29.439Z,7.33
2023-02-14T19:53:59.745Z,8.37
2023-02-14T19:56:29.949Z,9.40
2023-02-14T19:58:59.869Z,7.77
2023-02-14T20:01:33.365Z,7.77
2023-02-14T20:04:03.404Z,6.97
2023-02-14T20:06:32.975Z,7.30
2023-02-14T20:09:02.512Z,7.03
2023-02-14T20:11:33.066Z,7.13
2023-02-14T20:14:03.067Z,7.07
2023-02-14T20:16:36.722Z,7.50
2023-02-14T20:19:08.130Z,8.10
2023-02-14T20:21:37.884Z,7.93
2023-02-14T20:24:08.179Z,7.63
2023-02-14T20:26:39.491Z,6.73
2023-02-14T20:29:09.927Z,7.67
2023-02-14T20:31:43.665Z,7.47
2023-02-14T20:34:13.416Z,6.87
2023-02-14T20:36:43.342Z,7.47
2023-02-14T20:39:14.663Z,6.37
2023-02-14T20:41:49.821Z,7.67
2023-02-14T20:44:22.399Z,6.47
2023-02-14T20:46:55.426Z,7.57
2023-02-14T20:49:25.759Z,7.10
2023-02-14T20:51:56.165Z,6.73
2023-02-14T20:54:27.164Z,6.60
2023-02-14T20:56:57.967Z,6.93
2023-02-14T20:59:29.055Z,7.23
2023-02-14T21:02:01.600Z,5.83
2023-02-14T21:04:31.520Z,5.97
2023-02-14T21:07:05.120Z,6.10
2023-02-14T21:09:34.807Z,5.90
2023-02-14T21:12:07.867Z,5.20
2023-02-14T21:14:37.547Z,4.90
2023-02-14T21:17:09.715Z,4.90
2023-02-14T21:19:39.312Z,6.13
2023-02-14T21:22:08.856Z,4.77
2023-02-14T21:24:38.376Z,4.40
2023-02-14T21:27:07.920Z,5.77
2023-02-14T21:29:37.558Z,5.27
2023-02-14T21:32:10.008Z,4.80
2023-02-14T21:34:39.734Z,4.77
2023-02-14T21:37:09.294Z,5.63
2023-02-14T21:39:39.764Z,4.63
2023-02-14T21:42:11.882Z,5.67
2023-02-14T21:44:54.186Z,4.67
2023-02-14T21:47:26.450Z,4.77
2023-02-14T21:50:08.554Z,5.50
2023-02-14T21:52:38.241Z,5.07
2023-02-14T21:55:08.505Z,5.30
2023-02-14T21:57:38.068Z,5.33
2023-02-14T22:00:08.445Z,5.73
2023-02-14T22:02:43.123Z,5.87
2023-02-14T22:05:12.722Z,6.03
2023-02-14T22:07:42.248Z,6.10
2023-02-14T22:10:13.021Z,5.30
2023-02-14T22:12:42.541Z,5.13
2023-02-14T22:15:12.511Z,5.37
2023-02-14T22:17:45.207Z,4.73
2023-02-14T22:20:15.236Z,5.93
2023-02-14T22:22:44.796Z,5.57
2023-02-14T22:25:14.368Z,6.27
2023-02-14T22:27:43.943Z,5.70
2023-02-14T22:30:13.954Z,5.40
2023-02-14T22:32:46.858Z,5.77
2023-02-14T22:35:16.569Z,5.27
2023-02-14T22:37:46.163Z,4.87
2023-02-14T22:40:15.720Z,5.03
2023-02-14T22:42:45.296Z,4.77
2023-02-14T22:45:14.963Z,5.17
2023-02-14T22:47:47.356Z,5.40
2023-02-14T22:50:17.252Z,5.53
2023-02-14T22:52:46.781Z,5.30
2023-02-14T22:55:16.435Z,4.90
2023-02-14T22:57:46.040Z,5.47
2023-02-14T23:00:16.344Z,5.57
2023-02-14T23:02:48.518Z,4.93
2023-02-14T23:05:18.285Z,5.30
2023-02-14T23:07:47.814Z,4.90
2023-02-14T23:10:17.508Z,4.60
2023-02-14T23:12:59.462Z,5.00
2023-02-14T23:15:50.097Z,4.87
2023-02-14T23:18:34.749Z,5.10
2023-02-14T23:21:16.716Z,4.40
2023-02-14T23:23:46.322Z,5.20
2023-02-14T23:26:15.886Z,5.13
2023-02-14T23:28:45.460Z,4.60
2023-02-14T23:31:15.286Z,5.30
2023-02-14T23:33:47.544Z,5.17
2023-02-14T23:36:17.177Z,5.50
2023-02-14T23:38:46.775Z,5.30
2023-02-14T23:41:28.836Z,4.77
2023-02-14T23:43:59.109Z,4.80
2023-02-14T23:46:28.780Z,4.77
2023-02-14T23:49:00.983Z,4.87
2023-02-14T23:51:30.742Z,4.73
2023-02-14T23:54:00.261Z,5.37
2023-02-14T23:56:29.973Z,4.10
2023-02-14T23:58:59.552Z,4.47
